createdAt,value
2022-08-16T00:01:16.009Z,29.98
2022-08-16T00:03:43.651Z,29.97
2022-08-16T00:06:11.513Z,29.98
2022-08-16T00:08:45.869Z,29.98
2022-08-16T00:11:15.187Z,29.97
2022-08-16T00:13:43.312Z,29.98
2022-08-16T00:17:00.941Z,29.97
2022-08-16T00:19:10.059Z,29.90
2022-08-16T00:21:42.099Z,29.90
2022-08-16T00:24:12.206Z,29.88
2022-08-16T00:26:44.083Z,29.91
2022-08-16T00:29:15.693Z,29.88
2022-08-16T00:31:59.842Z,29.88
2022-08-16T00:34:43.151Z,29.91
2022-08-16T00:37:20.284Z,29.91
2022-08-16T00:39:57.361Z,29.95
2022-08-16T00:42:29.822Z,30.01
2022-08-16T00:45:06.177Z,30.02
2022-08-16T00:47:39.095Z,30.00
2022-08-16T00:50:11.366Z,29.99
2022-08-16T00:52:50.365Z,29.99
2022-08-16T00:55:23.771Z,30.00
2022-08-16T00:58:00.002Z,29.97
2022-08-16T01:00:31.137Z,29.99
2022-08-16T01:03:13.766Z,29.97
2022-08-16T01:05:42.194Z,29.98
2022-08-16T01:08:35.397Z,29.98
2022-08-16T01:11:02.376Z,29.94
2022-08-16T01:13:33.180Z,29.90
2022-08-16T01:16:03.833Z,29.93
2022-08-16T01:18:42.316Z,29.88
2022-08-16T01:21:22.443Z,29.91
2022-08-16T01:24:03.617Z,29.91
2022-08-16T01:26:34.066Z,29.98
2022-08-16T01:29:06.573Z,29.96
2022-08-16T01:31:37.685Z,29.96
2022-08-16T01:34:23.216Z,29.99
2022-08-16T01:37:02.745Z,29.99
2022-08-16T01:39:31.615Z,29.99
2022-08-16T01:42:04.146Z,30.01
2022-08-16T01:44:40.643Z,29.99
2022-08-16T01:47:09.355Z,30.01
2022-08-16T01:49:45.719Z,30.00
2022-08-16T01:52:30.092Z,29.96
2022-08-16T01:54:59.530Z,29.96
2022-08-16T01:57:28.122Z,29.96
2022-08-16T01:59:58.885Z,29.97
2022-08-16T02:02:28.502Z,29.92
2022-08-16T02:04:57.384Z,29.91
2022-08-16T02:07:25.548Z,29.89
2022-08-16T02:09:56.872Z,29.86
2022-08-16T02:12:51.586Z,29.92
2022-08-16T02:15:16.171Z,29.93
2022-08-16T02:17:43.742Z,29.94
2022-08-16T02:20:12.339Z,29.95
2022-08-16T02:22:39.901Z,29.96
2022-08-16T02:25:11.321Z,29.97
2022-08-16T02:27:44.963Z,30.01
2022-08-16T02:30:35.670Z,30.03
2022-08-16T02:33:06.178Z,30.01
2022-08-16T02:35:34.288Z,30.00
2022-08-16T02:38:17.507Z,29.99
2022-08-16T02:40:46.446Z,29.99
2022-08-16T02:43:15.305Z,29.99
2022-08-16T02:45:42.605Z,30.01
2022-08-16T02:48:29.370Z,29.99
2022-08-16T02:51:06.535Z,29.96
2022-08-16T02:53:41.441Z,29.95
2022-08-16T02:56:11.285Z,29.93
2022-08-16T02:58:39.809Z,29.86
2022-08-16T03:01:07.280Z,29.89
2022-08-16T03:04:39.426Z,29.86
2022-08-16T03:06:42.170Z,29.89
2022-08-16T03:09:13.884Z,29.93
2022-08-16T03:11:42.568Z,29.94
2022-08-16T03:14:12.177Z,29.95
2022-08-16T03:16:58.863Z,29.94
2022-08-16T03:19:48.492Z,29.96
2022-08-16T03:22:19.092Z,29.99
2022-08-16T03:24:57.527Z,30.02
2022-08-16T03:27:25.590Z,29.99
2022-08-16T03:30:00.863Z,29.98
2022-08-16T03:32:29.251Z,29.98
2022-08-16T03:34:56.430Z,29.95
2022-08-16T03:37:24.061Z,29.98
2022-08-16T03:39:56.232Z,29.95
2022-08-16T03:42:24.342Z,30.00
2022-08-16T03:44:51.556Z,29.98
2022-08-16T03:47:34.339Z,29.93
2022-08-16T03:50:03.080Z,29.87
2022-08-16T03:52:31.877Z,29.87
2022-08-16T03:54:59.861Z,29.88
2022-08-16T03:57:31.748Z,29.94
2022-08-16T04:00:05.803Z,29.96
2022-08-16T04:02:34.444Z,29.96
2022-08-16T04:05:03.867Z,29.91
2022-08-16T04:07:33.321Z,29.82
2022-08-16T04:10:00.825Z,29.82
2022-08-16T04:12:53.479Z,29.77
2022-08-16T04:15:23.036Z,29.69
2022-08-16T04:17:56.394Z,29.68
2022-08-16T04:20:33.758Z,29.69
2022-08-16T04:23:01.669Z,29.66
2022-08-16T04:25:29.207Z,29.63
2022-08-16T04:27:56.428Z,29.58
2022-08-16T04:30:32.367Z,29.52
2022-08-16T04:33:04.507Z,29.51
2022-08-16T04:35:34.365Z,29.42
2022-08-16T04:38:11.042Z,29.40
2022-08-16T04:40:48.350Z,29.35
2022-08-16T04:43:17.697Z,29.33
2022-08-16T04:45:45.299Z,29.31
2022-08-16T04:48:22.080Z,29.30
2022-08-16T04:50:59.836Z,29.25
2022-08-16T04:53:27.015Z,29.23
2022-08-16T04:55:54.450Z,29.23
2022-08-16T04:58:45.010Z,29.20
2022-08-16T05:01:08.887Z,29.21
2022-08-16T05:03:41.875Z,29.17
2022-08-16T05:06:45.521Z,29.18
2022-08-16T05:09:12.177Z,29.16
2022-08-16T05:11:39.455Z,29.02
2022-08-16T05:14:07.231Z,28.97
2022-08-16T05:16:34.639Z,28.94
2022-08-16T05:19:04.133Z,28.86
2022-08-16T05:21:35.692Z,28.81
2022-08-16T05:24:07.279Z,28.78
2022-08-16T05:26:35.329Z,28.58
2022-08-16T05:29:04.449Z,28.50
2022-08-16T05:31:32.352Z,28.33
2022-08-16T05:34:03.310Z,28.19
2022-08-16T05:36:36.728Z,28.19
2022-08-16T05:39:06.718Z,28.11
2022-08-16T05:41:44.584Z,27.91
2022-08-16T05:44:22.920Z,27.96
2022-08-16T05:46:53.900Z,28.12
2022-08-16T05:49:23.382Z,28.01
2022-08-16T05:51:52.645Z,27.82
2022-08-16T05:54:25.770Z,27.49
2022-08-16T05:56:53.799Z,27.28
2022-08-16T05:59:21.968Z,27.45
2022-08-16T06:01:49.703Z,27.40
2022-08-16T06:04:35.015Z,27.27
2022-08-16T06:07:06.332Z,27.25
2022-08-16T06:09:43.069Z,27.06
2022-08-16T06:12:12.400Z,27.19
2022-08-16T06:14:40.073Z,27.19
2022-08-16T06:17:07.686Z,27.05
2022-08-16T06:19:35.669Z,26.94
2022-08-16T06:22:03.235Z,27.02
2022-08-16T06:24:53.549Z,26.91
2022-08-16T06:27:19.327Z,26.87
2022-08-16T06:29:50.001Z,26.94
2022-08-16T06:32:27.735Z,27.09
2022-08-16T06:35:02.449Z,27.15
2022-08-16T06:37:37.081Z,27.00
2022-08-16T06:40:13.039Z,26.91
2022-08-16T06:42:47.899Z,26.85
2022-08-16T06:45:15.901Z,26.90
2022-08-16T06:47:54.236Z,26.83
2022-08-16T06:50:29.423Z,26.88
2022-08-16T06:53:00.354Z,26.91
2022-08-16T06:55:34.521Z,26.51
2022-08-16T06:58:02.193Z,26.58
2022-08-16T07:00:37.571Z,26.63
2022-08-16T07:03:27.148Z,26.56
2022-08-16T07:05:52.827Z,26.65
2022-08-16T07:08:21.170Z,26.70
2022-08-16T07:10:50.025Z,26.76
2022-08-16T07:13:26.719Z,26.76
2022-08-16T07:16:05.339Z,26.80
2022-08-16T07:18:33.361Z,26.75
2022-08-16T07:21:02.181Z,26.87
2022-08-16T07:23:38.809Z,26.86
2022-08-16T07:26:24.946Z,26.88
2022-08-16T07:28:52.910Z,26.46
2022-08-16T07:31:21.320Z,26.65
2022-08-16T07:33:53.479Z,26.30
2022-08-16T07:36:22.953Z,26.47
2022-08-16T07:38:50.268Z,26.58
2022-08-16T07:41:18.837Z,26.61
2022-08-16T07:43:47.616Z,26.55
2022-08-16T07:46:39.714Z,26.73
2022-08-16T07:49:03.718Z,26.66
2022-08-16T07:51:31.468Z,26.65
2022-08-16T07:54:09.676Z,26.38
2022-08-16T07:56:39.032Z,26.31
2022-08-16T07:59:06.641Z,26.02
2022-08-16T08:01:34.808Z,25.86
2022-08-16T08:04:02.598Z,25.90
2022-08-16T08:06:32.485Z,26.02
2022-08-16T08:09:00.372Z,26.08
2022-08-16T08:11:29.975Z,26.17
2022-08-16T08:14:03.525Z,26.22
2022-08-16T08:16:32.358Z,26.17
2022-08-16T08:19:02.357Z,26.37
2022-08-16T08:22:00.944Z,26.27
2022-08-16T08:24:18.016Z,26.25
2022-08-16T08:26:50.139Z,26.27
2022-08-16T08:29:22.988Z,26.19
2022-08-16T08:31:52.908Z,26.22
2022-08-16T08:34:20.718Z,26.36
2022-08-16T08:36:48.188Z,26.29
2022-08-16T08:39:15.571Z,26.33
2022-08-16T08:41:49.320Z,26.49
2022-08-16T08:44:28.387Z,26.45
2022-08-16T08:47:02.071Z,26.38
2022-08-16T08:49:46.388Z,26.50
2022-08-16T08:52:34.359Z,26.34
2022-08-16T08:55:04.977Z,26.38
2022-08-16T08:57:37.150Z,26.55
2022-08-16T09:00:13.323Z,26.55
2022-08-16T09:02:44.634Z,26.60
2022-08-16T09:05:14.802Z,26.59
2022-08-16T09:08:00.797Z,26.48
2022-08-16T09:10:29.495Z,26.37
2022-08-16T09:12:57.019Z,26.41
2022-08-16T09:15:24.324Z,26.56
2022-08-16T09:17:54.952Z,26.56
2022-08-16T09:20:23.763Z,26.58
2022-08-16T09:22:53.497Z,26.63
2022-08-16T09:25:26.349Z,26.68
2022-08-16T09:28:02.534Z,26.67
2022-08-16T09:30:43.396Z,26.69
2022-08-16T09:33:15.706Z,26.68
2022-08-16T09:35:45.610Z,26.53
2022-08-16T09:38:31.554Z,26.62
2022-08-16T09:41:00.991Z,26.67
2022-08-16T09:43:59.816Z,26.75
2022-08-16T09:46:44.495Z,26.72
2022-08-16T09:49:04.595Z,26.83
2022-08-16T09:51:37.196Z,26.90
2022-08-16T09:54:05.092Z,26.92
2022-08-16T09:56:35.170Z,27.19
2022-08-16T09:59:08.075Z,27.47
2022-08-16T10:01:36.620Z,27.65
2022-08-16T10:04:31.802Z,27.86
2022-08-16T10:06:53.700Z,28.04
2022-08-16T10:09:20.926Z,28.17
2022-08-16T10:11:50.621Z,28.28
2022-08-16T10:14:19.851Z,28.54
2022-08-16T10:16:59.544Z,28.54
2022-08-16T10:19:31.899Z,28.59
2022-08-16T10:22:04.627Z,28.64
2022-08-16T10:24:33.603Z,28.63
2022-08-16T10:27:25.533Z,28.73
2022-08-16T10:30:01.519Z,28.83
2022-08-16T10:32:34.604Z,28.87
2022-08-16T10:35:04.613Z,28.90
2022-08-16T10:37:36.477Z,28.93
2022-08-16T10:40:06.601Z,28.91
2022-08-16T10:42:54.279Z,28.94
2022-08-16T10:45:21.574Z,28.88
2022-08-16T10:48:03.143Z,28.93
2022-08-16T10:50:32.698Z,28.94
2022-08-16T10:53:00.349Z,28.93
2022-08-16T10:55:37.555Z,28.93
2022-08-16T10:58:11.585Z,28.93
2022-08-16T11:00:41.571Z,28.92
2022-08-16T11:03:42.615Z,28.90
2022-08-16T11:05:59.831Z,28.91
2022-08-16T11:08:35.404Z,28.93
2022-08-16T11:11:12.820Z,28.95
2022-08-16T11:14:11.409Z,28.98
2022-08-16T11:19:22.783Z,28.89
2022-08-16T11:24:42.842Z,29.03
2022-08-16T11:27:23.239Z,29.10
2022-08-16T11:29:53.360Z,29.21
2022-08-16T11:32:31.680Z,29.34
2022-08-16T11:35:10.289Z,29.35
2022-08-16T11:40:32.354Z,29.44
2022-08-16T11:43:00.797Z,29.39
2022-08-16T11:45:28.050Z,29.31
2022-08-16T11:48:00.929Z,29.21
2022-08-16T11:50:28.148Z,29.25
2022-08-16T11:52:56.681Z,29.56
2022-08-16T11:55:23.874Z,29.57
2022-08-16T11:57:51.526Z,29.57
2022-08-16T12:00:43.507Z,29.57
2022-08-16T12:03:11.247Z,29.38
2022-08-16T12:05:40.503Z,29.30
2022-08-16T12:08:11.361Z,29.25
2022-08-16T12:10:43.269Z,29.34
2022-08-16T12:13:11.691Z,29.19
2022-08-16T12:15:39.916Z,29.14
2022-08-16T12:18:09.332Z,29.13
2022-08-16T12:20:40.080Z,29.11
2022-08-16T12:23:08.085Z,29.42
2022-08-16T12:25:37.660Z,29.40
2022-08-16T12:28:07.692Z,29.57
2022-08-16T12:30:39.615Z,29.57
2022-08-16T12:33:10.714Z,29.53
2022-08-16T12:35:39.908Z,29.44
2022-08-16T12:38:38.200Z,29.36
2022-08-16T12:40:57.288Z,29.37
2022-08-16T12:43:25.536Z,29.28
2022-08-16T12:45:55.491Z,29.33
2022-08-16T12:48:34.796Z,29.59
2022-08-16T12:51:03.563Z,29.64
2022-08-16T12:53:31.974Z,29.58
2022-08-16T12:56:01.277Z,29.57
2022-08-16T12:58:48.912Z,29.67
2022-08-16T13:01:16.819Z,29.65
2022-08-16T13:03:44.739Z,29.67
2022-08-16T13:06:12.715Z,29.61
2022-08-16T13:08:40.258Z,29.45
2022-08-16T13:11:08.759Z,29.39
2022-08-16T13:13:36.134Z,29.44
2022-08-16T13:16:15.294Z,29.44
2022-08-16T13:18:52.729Z,29.46
2022-08-16T13:21:23.676Z,29.59
2022-08-16T13:23:55.242Z,29.60
2022-08-16T13:26:26.379Z,29.57
2022-08-16T13:28:54.063Z,29.61
2022-08-16T13:31:21.355Z,29.54
2022-08-16T13:33:51.290Z,29.59
2022-08-16T13:36:48.084Z,29.54
2022-08-16T13:39:13.005Z,29.56
2022-08-16T13:41:42.547Z,29.52
2022-08-16T13:44:09.772Z,29.57
2022-08-16T13:46:37.278Z,29.53
2022-08-16T13:49:05.976Z,29.44
2022-08-16T13:51:33.135Z,29.38
2022-08-16T13:54:03.311Z,29.28
2022-08-16T13:56:38.042Z,29.35
2022-08-16T13:59:19.244Z,29.79
2022-08-16T14:01:55.228Z,30.10
2022-08-16T14:04:26.569Z,30.06
2022-08-16T14:06:55.138Z,30.28
2022-08-16T14:09:24.215Z,30.15
2022-08-16T14:11:53.336Z,30.02
2022-08-16T14:14:28.775Z,29.94
2022-08-16T14:16:57.720Z,29.81
2022-08-16T14:19:25.364Z,29.72
2022-08-16T14:22:14.305Z,29.91
2022-08-16T14:24:45.286Z,29.97
2022-08-16T14:27:15.622Z,30.00
2022-08-16T14:29:44.748Z,30.14
2022-08-16T14:32:13.127Z,30.16
2022-08-16T14:34:52.434Z,30.11
2022-08-16T14:37:23.486Z,29.98
2022-08-16T14:39:50.957Z,30.08
2022-08-16T14:42:20.926Z,30.45
2022-08-16T14:44:50.243Z,30.59
2022-08-16T14:47:17.964Z,30.67
2022-08-16T14:49:45.187Z,30.86
2022-08-16T14:52:17.829Z,31.13
2022-08-16T14:54:59.869Z,31.18
2022-08-16T14:57:27.035Z,31.36
2022-08-16T14:59:59.767Z,31.54
2022-08-16T15:02:34.542Z,31.56
2022-08-16T15:05:03.093Z,31.65
2022-08-16T15:07:34.868Z,31.70
2022-08-16T15:10:03.867Z,31.66
2022-08-16T15:12:34.074Z,31.75
2022-08-16T15:15:12.403Z,31.73
2022-08-16T15:17:54.094Z,31.82
2022-08-16T15:20:26.236Z,31.71
2022-08-16T15:22:54.751Z,31.82
2022-08-16T15:25:27.560Z,31.85
2022-08-16T15:27:57.640Z,31.94
2022-08-16T15:30:57.014Z,31.90
2022-08-16T15:33:16.628Z,32.11
2022-08-16T15:35:44.977Z,32.02
2022-08-16T15:38:43.585Z,32.05
2022-08-16T15:41:00.570Z,32.01
2022-08-16T15:43:33.775Z,31.93
2022-08-16T15:46:08.749Z,32.17
2022-08-16T15:48:35.925Z,32.02
2022-08-16T15:51:08.229Z,31.78
2022-08-16T15:53:41.782Z,31.78
2022-08-16T15:56:10.163Z,31.88
2022-08-16T15:58:40.735Z,31.86
2022-08-16T16:01:12.490Z,32.12
2022-08-16T16:03:39.815Z,31.97
2022-08-16T16:06:07.381Z,31.82
2022-08-16T16:08:34.802Z,31.77
2022-08-16T16:11:05.017Z,31.61
2022-08-16T16:13:34.170Z,31.57
2022-08-16T16:16:03.561Z,31.68
2022-08-16T16:18:36.283Z,31.66
2022-08-16T16:21:06.540Z,31.61
2022-08-16T16:23:44.502Z,31.56
2022-08-16T16:26:22.479Z,31.54
2022-08-16T16:29:07.683Z,31.40
2022-08-16T16:31:36.415Z,31.36
2022-08-16T16:34:08.387Z,31.31
2022-08-16T16:36:37.482Z,31.19
2022-08-16T16:39:07.253Z,31.18
2022-08-16T16:41:35.129Z,31.10
2022-08-16T16:44:03.891Z,31.06
2022-08-16T16:46:43.157Z,31.04
2022-08-16T16:49:14.299Z,31.01
2022-08-16T16:51:44.905Z,30.96
2022-08-16T16:54:22.546Z,30.98
2022-08-16T16:56:56.778Z,31.01
2022-08-16T16:59:28.364Z,30.93
2022-08-16T17:02:01.513Z,30.93
2022-08-16T17:04:45.750Z,30.88
2022-08-16T17:07:14.450Z,30.94
2022-08-16T17:09:41.708Z,30.88
2022-08-16T17:12:09.257Z,30.86
2022-08-16T17:14:38.531Z,30.84
2022-08-16T17:17:10.460Z,30.74
2022-08-16T17:19:41.339Z,30.80
2022-08-16T17:22:32.685Z,30.70
2022-08-16T17:25:00.632Z,30.64
2022-08-16T17:27:33.141Z,30.62
2022-08-16T17:30:15.740Z,30.56
2022-08-16T17:32:48.239Z,30.56
2022-08-16T17:35:20.488Z,30.54
2022-08-16T17:37:50.762Z,30.57
2022-08-16T17:40:40.420Z,30.57
2022-08-16T17:43:09.964Z,30.50
2022-08-16T17:45:37.289Z,30.46
2022-08-16T17:48:04.738Z,30.52
2022-08-16T17:50:31.916Z,30.50
2022-08-16T17:53:00.562Z,30.46
2022-08-16T17:55:30.983Z,30.44
2022-08-16T17:57:58.924Z,30.39
2022-08-16T18:00:27.722Z,30.46
2022-08-16T18:02:55.527Z,30.41
2022-08-16T18:05:24.008Z,30.37
2022-08-16T18:07:51.784Z,30.37
2022-08-16T18:10:32.723Z,30.27
2022-08-16T18:13:01.560Z,30.24
2022-08-16T18:15:29.118Z,30.25
2022-08-16T18:17:56.744Z,30.26
2022-08-16T18:20:24.977Z,30.26
2022-08-16T18:22:52.185Z,30.23
2022-08-16T18:25:21.095Z,30.27
2022-08-16T18:27:48.254Z,30.26
2022-08-16T18:30:15.606Z,30.22
2022-08-16T18:32:48.016Z,30.21
2022-08-16T18:35:16.764Z,30.23
2022-08-16T18:37:44.603Z,30.23
2022-08-16T18:40:13.391Z,30.18
2022-08-16T18:42:52.844Z,30.27
2022-08-16T18:45:22.487Z,30.24
2022-08-16T18:47:50.234Z,30.26
2022-08-16T18:50:18.577Z,30.26
2022-08-16T18:52:54.736Z,30.26
2022-08-16T18:55:24.315Z,30.26
2022-08-16T18:57:53.665Z,30.23
2022-08-16T19:00:26.339Z,30.21
2022-08-16T19:03:02.109Z,30.10
2022-08-16T19:05:31.676Z,30.06
2022-08-16T19:07:59.285Z,30.07
2022-08-16T19:10:28.389Z,30.07
2022-08-16T19:12:57.531Z,30.08
2022-08-16T19:15:27.377Z,30.08
2022-08-16T19:17:55.787Z,30.08
2022-08-16T19:20:25.767Z,30.09
2022-08-16T19:23:10.513Z,30.11
2022-08-16T19:25:48.238Z,30.20
2022-08-16T19:28:51.823Z,30.25
2022-08-16T19:31:12.874Z,30.24
2022-08-16T19:33:40.968Z,30.25
2022-08-16T19:36:31.683Z,30.28
2022-08-16T19:39:09.018Z,30.29
2022-08-16T19:41:40.174Z,30.31
2022-08-16T19:44:09.510Z,30.32
2022-08-16T19:46:37.858Z,30.36
2022-08-16T19:49:06.244Z,30.34
2022-08-16T19:51:33.778Z,30.36
2022-08-16T19:54:01.506Z,30.36
2022-08-16T19:56:29.204Z,30.32
2022-08-16T20:01:46.484Z,30.25
2022-08-16T20:04:14.214Z,30.26
2022-08-16T20:06:41.952Z,30.26
2022-08-16T20:09:12.682Z,30.26
2022-08-16T20:11:43.675Z,30.25
2022-08-16T20:14:10.941Z,30.27
2022-08-16T20:16:38.102Z,30.29
2022-08-16T20:19:06.906Z,30.32
2022-08-16T20:21:34.150Z,30.36
2022-08-16T20:24:30.295Z,30.39
2022-08-16T20:26:48.489Z,30.40
2022-08-16T20:29:15.684Z,30.44
2022-08-16T20:31:42.956Z,30.49
2022-08-16T20:34:11.636Z,30.47
2022-08-16T20:36:38.921Z,30.45
2022-08-16T20:39:06.081Z,30.40
2022-08-16T20:41:33.997Z,30.38
2022-08-16T20:44:01.185Z,30.39
2022-08-16T20:46:28.545Z,30.33
2022-08-16T20:48:55.738Z,30.34
2022-08-16T20:51:24.317Z,30.30
2022-08-16T20:53:51.532Z,30.32
2022-08-16T20:56:18.673Z,30.30
2022-08-16T20:58:45.894Z,30.24
2022-08-16T21:01:13.167Z,30.28
2022-08-16T21:03:40.382Z,30.27
2022-08-16T21:06:07.734Z,30.25
2022-08-16T21:08:53.310Z,30.18
2022-08-16T21:11:21.822Z,30.27
2022-08-16T21:13:49.049Z,30.28
2022-08-16T21:16:17.966Z,30.29
2022-08-16T21:18:45.136Z,30.30
2022-08-16T21:21:12.511Z,30.31
2022-08-16T21:23:41.088Z,30.30
2022-08-16T21:26:11.113Z,30.29
2022-08-16T21:28:43.151Z,30.28
2022-08-16T21:31:11.405Z,30.27
2022-08-16T21:33:39.109Z,30.26
2022-08-16T21:36:06.845Z,30.26
2022-08-16T21:38:34.042Z,30.23
2022-08-16T21:41:05.136Z,30.17
2022-08-16T21:43:33.018Z,30.15
2022-08-16T21:46:01.721Z,30.17
2022-08-16T21:48:32.691Z,30.15
2022-08-16T21:51:02.575Z,30.14
2022-08-16T21:53:29.705Z,30.16
2022-08-16T21:55:58.510Z,30.15
2022-08-16T21:58:27.368Z,30.21
2022-08-16T22:00:54.685Z,30.25
2022-08-16T22:03:22.022Z,30.24
2022-08-16T22:06:10.092Z,30.26
2022-08-16T22:08:46.763Z,30.26
2022-08-16T22:11:22.290Z,30.23
2022-08-16T22:13:58.018Z,30.24
2022-08-16T22:16:27.681Z,30.23
2022-08-16T22:18:54.931Z,30.22
2022-08-16T22:21:22.304Z,30.20
2022-08-16T22:23:55.167Z,30.19
2022-08-16T22:26:30.925Z,30.17
2022-08-16T22:29:01.996Z,30.18
2022-08-16T22:31:29.598Z,30.13
2022-08-16T22:33:57.108Z,30.07
2022-08-16T22:36:28.045Z,30.10
2022-08-16T22:38:57.950Z,30.08
2022-08-16T22:41:25.897Z,30.09
2022-08-16T22:43:53.129Z,30.11
2022-08-16T22:46:21.766Z,30.13
2022-08-16T22:48:49.043Z,30.18
2022-08-16T22:51:16.631Z,30.17
2022-08-16T22:53:43.777Z,30.15
2022-08-16T22:56:10.993Z,30.19
2022-08-16T22:58:38.796Z,30.21
2022-08-16T23:01:07.321Z,30.23
2022-08-16T23:03:37.691Z,30.25
2022-08-16T23:06:06.115Z,30.23
2022-08-16T23:08:39.651Z,30.18
2022-08-16T23:11:09.298Z,30.18
2022-08-16T23:13:36.730Z,30.17
2022-08-16T23:16:11.495Z,30.15
2022-08-16T23:18:40.727Z,30.14
2022-08-16T23:21:10.913Z,30.14
2022-08-16T23:23:38.733Z,30.09
2022-08-16T23:26:44.720Z,30.04
2022-08-16T23:28:54.670Z,30.06
2022-08-16T23:31:21.827Z,30.09
2022-08-16T23:33:50.411Z,30.12
2022-08-16T23:36:17.577Z,30.11
2022-08-16T23:38:44.748Z,30.11
2022-08-16T23:41:12.345Z,30.15
2022-08-16T23:43:41.839Z,30.17
2022-08-16T23:46:11.382Z,30.21
2022-08-16T23:49:57.446Z,30.20
2022-08-16T23:51:27.385Z,30.17
2022-08-16T23:53:54.578Z,30.16
2022-08-16T23:56:21.810Z,30.15
2022-08-16T23:58:51.486Z,30.15
